Terminal Aerodrome Forecast
Issued by NWS Twin Cities, MN

Home | Current Version | Previous Version | Text Only | Print | Product List | Glossary Off
Versions: 1 2 3 4 5 6 7 8 9 10 11 12 13 14 15 16 17

345
FTUS43 KMPX 220520
TAFEAU
TAF
KEAU 220520Z 2206/2306 19007KT P6SM VCTS SCT025 BKN040CB
      TEMPO 2207/2210 5SM -TSRA SCT025 BKN035CB
     FM221000 27004KT P6SM SCT020 BKN110
     FM221500 34006KT P6SM -SHRA BKN050 OVC100 PROB30 2220/2224 5SM
      -TSRA BKN035CB OVC090
     FM230100 VRB03KT P6SM OVC050=

USA.gov is the U.S. government's official web portal to all federal, state and local government web resources and services.